Auriesville, NY

10:31 AM EST on December 21, 2014 (GMT -0500)
Dykeman Farms | Change Station
CLOSE
Current Station
Personal Weather Station
Location: Fultonville, NY
Elevation: 505 ft
Nearby Weather Stations
Active Advisory: Special Statement

Elev 505 ft 42.91 °N, 74.36 °W | Updated 14 minutes ago

Overcast
Overcast
28.5 °F
Feels Like 28 °F
N
0.0
Wind Variable Wind from NW
Gusts 1.0 mph

Today
High -- | Low -- °F
--% Chance of Precip.
Yesterday
High -- | Low -- °F
Precip. -- in
7:25 AM 4:25 PM
Waning Crescent, 0% visible
Pressure 30.35 in
Visibility 4.0 miles
Clouds Overcast 2200 ft
Windchill 28 °F
Dew Point 25 °F
Humidity 85%
Rainfall 0.00 in
Snow Depth Not available.
UV 0 out of 12
Pollen .10 out of 12
Air Quality Not available.
Flu Activity Not available.
METAR KSCH 211445Z 00000KT 4SM BR OVC022 M03/M04 A3035

More Conditions Fewer Conditions

Pressure 30.35 in
Visibility 4.0 miles
Clouds Overcast 2200 ft
Windchill 28 °F
Dew Point 25 °F
Humidity 85%
Rainfall 0.00 in
Snow Depth Not available.
UV 0 out of 12
Pollen .10 out of 12
Air Quality Not available.
Flu Activity Not available.
METAR KSCH 211445Z 00000KT 4SM BR OVC022 M03/M04 A3035

More Conditions Fewer Conditions

10-Day Weather Forecast

Almanac

Astronomy

Dec. 21, 2014 Rise Set
Actual Time
Civil Twilight
Nautical Twilight
Astronomical Twilight
Moon
Length of Visible Light
Length of Day
Tomorrow will be .
, % of the Moon is Illuminated

Today's Extremes

State Highs State Lows

Community

WunderPhotos

Upload Photos

1,779,412 photos uploaded!

WunderBlogs® & News

Nearby

Air Quality

  Air Quality AQ Index Pollutant
Not available.

Snow Depth

Station Depth Elevation

Earthquake Activity

City Distance Mag. Time & Date
Minimum magnitude displayed is 2.5.

Coastal Water Temperatures

Place Temperature

Nearby Weather Stations